Time;durP1;ratioP1;P1;durP2;ratioP2;P2;SDS_P1;SDS_P2;PMS_P1;PMS_P2;Temp;Humidity;BMP_temperature;BMP_pressure;BME280_temperature;BME280_humidity;BME280_pressure;Samples;Min_cycle;Max_cycle;Signal;HPM_P1;HPM_P2
2024/04/19 00:01:41;;;;;;;4.67;4.13;;;18.90;45.40;;;;;;5312516;27;20456;-78
2024/04/19 00:04:08;;;;;;;7.20;4.83;;;18.90;45.40;;;;;;5312444;27;20472;-76
2024/04/19 00:06:41;;;;;;;6.40;4.40;;;18.90;45.40;;;;;;5312947;27;20449;-79
2024/04/19 00:09:09;;;;;;;5.20;4.10;;;18.90;45.40;;;;;;5312542;26;20521;-78
2024/04/19 00:11:39;;;;;;;6.80;4.00;;;18.80;45.40;;;;;;5311843;27;20505;-77
2024/04/19 00:14:06;;;;;;;4.93;3.87;;;18.80;45.60;;;;;;5312606;27;20465;-79
2024/04/19 00:16:36;;;;;;;5.90;4.13;;;18.80;45.60;;;;;;5311530;27;20464;-78
2024/04/19 00:19:05;;;;;;;7.97;3.90;;;18.80;45.60;;;;;;5311168;26;20554;-77
2024/04/19 00:21:36;;;;;;;4.53;3.67;;;18.80;45.70;;;;;;5311231;27;20559;-77
2024/04/19 00:24:09;;;;;;;5.23;4.07;;;18.80;45.80;;;;;;5311288;27;20502;-78
2024/04/19 00:26:36;;;;;;;4.20;3.80;;;18.70;45.80;;;;;;5311275;27;20495;-76
2024/04/19 00:29:06;;;;;;;5.07;3.77;;;18.70;45.90;;;;;;5311977;26;20558;-78
2024/04/19 00:31:33;;;;;;;6.47;3.50;;;18.70;45.80;;;;;;5308197;27;20477;-77
2024/04/19 00:34:03;;;;;;;6.57;3.50;;;18.60;45.80;;;;;;5290398;27;20465;-78
2024/04/19 00:36:30;;;;;;;5.00;3.23;;;18.60;46.50;;;;;;5306180;27;20525;-75
2024/04/19 00:39:00;;;;;;;3.40;2.93;;;18.60;45.90;;;;;;5304855;26;20524;-75
2024/04/19 00:41:31;;;;;;;3.23;2.83;;;18.60;46.00;;;;;;5285477;27;20454;-74
2024/04/19 00:44:00;;;;;;;4.97;2.67;;;18.60;46.00;;;;;;5316557;27;20472;-76
2024/04/19 00:46:28;;;;;;;3.53;2.80;;;18.60;46.60;;;;;;5305971;27;20511;-74
2024/04/19 00:48:57;;;;;;;3.80;3.00;;;18.60;45.90;;;;;;5317031;27;20477;-75
2024/04/19 00:51:25;;;;;;;2.97;2.50;;;18.50;45.90;;;;;;5317775;27;20489;-75
2024/04/19 00:53:54;;;;;;;4.93;2.70;;;18.50;45.90;;;;;;5316018;27;20516;-76
2024/04/19 00:56:22;;;;;;;2.80;2.53;;;18.40;46.00;;;;;;5313496;27;20469;-76
2024/04/19 00:58:54;;;;;;;3.00;2.70;;;18.40;46.10;;;;;;5310877;26;20528;-78
2024/04/19 01:01:21;;;;;;;3.90;2.47;;;18.40;46.10;;;;;;5307498;27;21048;-77
2024/04/19 01:03:51;;;;;;;3.53;2.53;;;18.30;46.10;;;;;;5310372;27;20481;-78
2024/04/19 01:06:19;;;;;;;3.57;2.73;;;18.30;46.10;;;;;;5300601;27;20536;-78
2024/04/19 01:08:49;;;;;;;3.80;2.40;;;18.30;46.20;;;;;;5310606;26;20488;-77
2024/04/19 01:11:16;;;;;;;2.47;2.27;;;18.30;46.20;;;;;;5296555;27;20577;-77
2024/04/19 01:13:47;;;;;;;2.57;2.37;;;18.20;46.20;;;;;;5310204;27;20532;-77
2024/04/19 01:16:18;;;;;;;3.43;2.50;;;18.20;46.20;;;;;;5304168;27;20601;-76
2024/04/19 01:18:49;;;;;;;3.17;2.40;;;18.20;46.30;;;;;;5295821;27;20592;-77
2024/04/19 01:21:16;;;;;;;2.83;1.80;;;18.20;46.30;;;;;;5308262;27;20469;-76
2024/04/19 01:23:47;;;;;;;2.60;2.40;;;18.20;46.40;;;;;;5313785;27;20456;-77
2024/04/19 01:26:17;;;;;;;1.93;1.83;;;18.20;46.40;;;;;;5293635;27;20558;-77
2024/04/19 01:28:47;;;;;;;2.53;2.30;;;18.20;46.50;;;;;;5313204;26;20473;-79
2024/04/19 01:31:15;;;;;;;2.40;2.10;;;18.10;46.40;;;;;;5313471;27;20469;-77
2024/04/19 01:33:44;;;;;;;4.20;2.40;;;18.10;46.50;;;;;;5305105;27;20482;-77
2024/04/19 01:36:12;;;;;;;2.87;2.10;;;18.20;46.50;;;;;;5305454;27;20490;-78
2024/04/19 01:38:42;;;;;;;2.80;2.13;;;18.10;46.40;;;;;;5313387;26;20484;-78
2024/04/19 01:41:10;;;;;;;2.20;2.00;;;18.10;46.50;;;;;;5313583;27;20579;-78
2024/04/19 01:43:44;;;;;;;4.70;2.30;;;18.10;46.60;;;;;;5312722;27;20586;-78
2024/04/19 01:46:11;;;;;;;2.63;2.43;;;18.10;46.60;;;;;;5313633;27;20472;-78
2024/04/19 01:48:41;;;;;;;3.47;2.10;;;18.00;46.60;;;;;;5306337;26;20489;-77
2024/04/19 01:51:08;;;;;;;3.03;2.17;;;18.00;46.60;;;;;;5283848;27;20517;-77
2024/04/19 01:53:38;;;;;;;2.43;2.23;;;18.00;46.60;;;;;;5298240;27;20561;-77
2024/04/19 01:56:06;;;;;;;2.63;2.47;;;18.00;46.80;;;;;;5312898;27;20562;-78
2024/04/19 01:58:36;;;;;;;4.40;2.40;;;18.00;46.70;;;;;;5307564;26;20474;-77
2024/04/19 02:01:06;;;;;;;2.50;2.27;;;18.00;46.80;;;;;;5304457;27;20472;-78
2024/04/19 02:03:36;;;;;;;2.50;2.17;;;18.00;46.80;;;;;;5296311;27;20469;-78
2024/04/19 02:06:07;;;;;;;3.40;2.27;;;18.00;46.80;;;;;;5304637;27;20524;-77
2024/04/19 02:08:38;;;;;;;2.40;2.20;;;17.90;46.80;;;;;;5312526;27;20484;-78
2024/04/19 02:11:08;;;;;;;2.60;2.40;;;17.90;46.90;;;;;;5305776;27;20540;-77
2024/04/19 02:17:22;;;;;;;3.63;2.43;;;17.90;46.80;;;;;;5297880;27;20555;-79
2024/04/19 02:19:49;;;;;;;2.13;2.03;;;17.80;47.00;;;;;;5282623;27;20515;-76
2024/04/19 02:22:19;;;;;;;3.20;2.17;;;17.80;47.10;;;;;;5278740;27;20458;-79
2024/04/19 02:24:47;;;;;;;2.60;2.40;;;17.80;47.00;;;;;;5279221;27;20577;-77
2024/04/19 02:30:52;;;;;;;2.70;2.30;;;17.80;47.00;;;;;;5279182;27;20499;-77
2024/04/19 02:33:00;;;;;;;2.27;2.17;;;17.70;46.90;;;;;;5278127;27;20561;-77
2024/04/19 02:35:30;;;;;;;2.07;1.83;;;17.70;46.90;;;;;;5278624;27;20450;-77
2024/04/19 02:38:00;;;;;;;4.33;2.27;;;17.70;47.00;;;;;;5278443;27;20991;-77
2024/04/19 02:40:30;;;;;;;4.03;2.50;;;17.70;46.90;;;;;;5279139;27;20479;-78
2024/04/19 02:43:00;;;;;;;2.50;2.00;;;17.70;47.00;;;;;;5278364;27;20454;-78
2024/04/19 02:45:30;;;;;;;2.70;2.30;;;17.70;47.00;;;;;;5278346;27;20458;-77
2024/04/19 02:48:12;;;;;;;2.13;2.03;;;17.70;47.00;;;;;;5278252;27;20552;-78
2024/04/19 02:50:42;;;;;;;2.27;2.07;;;17.60;46.80;;;;;;5278658;27;21107;-78
2024/04/19 02:53:12;;;;;;;3.87;2.27;;;17.60;47.00;;;;;;5278758;27;20538;-78
2024/04/19 02:55:42;;;;;;;2.70;2.23;;;17.60;47.00;;;;;;5278593;27;20458;-78
2024/04/19 02:58:11;;;;;;;2.00;1.87;;;17.60;46.90;;;;;;5278414;27;20463;-79
2024/04/19 03:00:42;;;;;;;2.13;1.90;;;17.60;47.10;;;;;;5282843;27;20531;-78
2024/04/19 03:03:16;;;;;;;2.47;1.70;;;17.60;47.10;;;;;;5291374;27;20487;-76
2024/04/19 03:05:46;;;;;;;2.60;1.80;;;17.60;47.10;;;;;;5311973;27;20580;-76
2024/04/19 03:08:16;;;;;;;2.73;2.03;;;17.60;47.00;;;;;;5311992;26;20528;-77
2024/04/19 03:10:46;;;;;;;2.00;1.80;;;17.50;47.00;;;;;;5305876;27;20470;-78
2024/04/19 03:13:16;;;;;;;2.93;2.30;;;17.50;47.00;;;;;;5309131;27;20473;-79
2024/04/19 03:15:47;;;;;;;2.23;1.60;;;17.50;47.20;;;;;;5298718;27;20489;-79
2024/04/19 03:18:20;;;;;;;2.00;1.90;;;17.50;47.20;;;;;;5312420;27;20579;-79
2024/04/19 03:20:50;;;;;;;1.67;1.57;;;17.50;47.20;;;;;;5312656;27;20465;-78
2024/04/19 03:23:20;;;;;;;2.30;2.00;;;17.50;47.30;;;;;;5312310;27;20472;-78
2024/04/19 03:25:50;;;;;;;2.57;2.20;;;17.40;47.30;;;;;;5312977;27;20453;-78
2024/04/19 03:28:20;;;;;;;2.83;2.20;;;17.40;47.30;;;;;;5298510;26;20484;-79
2024/04/19 03:30:50;;;;;;;4.63;3.83;;;17.40;47.40;;;;;;5311953;27;20480;-78
2024/04/19 03:33:22;;;;;;;10.00;6.37;;;17.40;47.40;;;;;;5311939;27;20576;-79
2024/04/19 03:35:53;;;;;;;10.87;7.13;;;17.40;47.40;;;;;;5290797;27;20535;-76
2024/04/19 03:38:24;;;;;;;13.40;8.23;;;17.30;47.40;;;;;;5311621;26;20488;-76
2024/04/19 03:40:55;;;;;;;15.80;9.40;;;17.40;47.50;;;;;;5312442;27;20469;-77
2024/04/19 03:43:32;;;;;;;17.30;10.67;;;17.40;47.50;;;;;;5311692;27;20544;-77
2024/04/19 03:46:00;;;;;;;20.77;12.30;;;17.30;47.40;;;;;;5311110;27;20473;-79
2024/04/19 03:48:32;;;;;;;24.63;14.47;;;17.30;47.70;;;;;;5303492;27;20489;-78
2024/04/19 03:51:02;;;;;;;26.57;16.00;;;17.40;47.70;;;;;;5311059;27;20500;-78
2024/04/19 03:53:32;;;;;;;27.40;16.50;;;17.40;47.60;;;;;;5312359;26;20938;-78
2024/04/19 03:56:02;;;;;;;27.57;16.90;;;17.40;47.70;;;;;;5311779;27;20493;-77
2024/04/19 03:58:32;;;;;;;27.23;16.63;;;17.40;47.60;;;;;;5304173;27;20484;-77
2024/04/19 04:01:07;;;;;;;28.27;16.30;;;17.30;47.60;;;;;;5311433;27;20465;-76
2024/04/19 04:03:40;;;;;;;24.90;15.90;;;17.30;47.70;;;;;;5286317;27;20472;-77
2024/04/19 04:06:10;;;;;;;28.00;16.50;;;17.30;47.70;;;;;;5304298;27;20578;-78
2024/04/19 04:08:40;;;;;;;27.50;16.20;;;17.30;47.80;;;;;;5295363;27;20529;-77
2024/04/19 04:11:12;;;;;;;25.43;15.40;;;17.30;47.90;;;;;;5301240;27;20819;-78
2024/04/19 04:13:42;;;;;;;27.23;15.60;;;17.30;47.90;;;;;;5306806;27;20554;-76
2024/04/19 04:16:12;;;;;;;23.43;14.97;;;17.30;47.80;;;;;;5309973;27;20457;-80
2024/04/19 04:18:45;;;;;;;21.73;13.83;;;17.30;48.00;;;;;;5309887;27;20477;-78
2024/04/19 04:21:15;;;;;;;22.53;13.90;;;17.30;48.20;;;;;;5306970;27;20525;-76
2024/04/19 04:23:45;;;;;;;22.70;14.47;;;17.30;48.00;;;;;;5310876;27;20523;-78
2024/04/19 04:26:15;;;;;;;23.47;14.40;;;17.30;48.00;;;;;;5311535;27;20473;-78
2024/04/19 04:28:45;;;;;;;20.60;12.90;;;17.30;47.90;;;;;;5310779;26;20485;-78
2024/04/19 04:31:13;;;;;;;22.23;13.67;;;17.30;48.00;;;;;;5285764;27;20510;-78
2024/04/19 04:33:45;;;;;;;21.27;13.90;;;17.30;48.00;;;;;;5295264;27;20441;-78
2024/04/19 04:36:15;;;;;;;22.20;13.00;;;17.30;48.00;;;;;;5285059;27;20502;-78
2024/04/19 04:38:45;;;;;;;20.83;13.10;;;17.30;48.00;;;;;;5295539;27;20563;-79
2024/04/19 04:41:15;;;;;;;17.97;11.73;;;17.30;48.00;;;;;;5311022;27;20518;-79
2024/04/19 04:43:45;;;;;;;19.80;12.23;;;17.30;48.10;;;;;;5285433;27;20516;-79
2024/04/19 04:46:16;;;;;;;18.57;12.10;;;17.30;48.00;;;;;;5311923;27;20445;-78
2024/04/19 04:48:49;;;;;;;17.77;10.87;;;17.30;48.00;;;;;;5283509;27;20482;-79
2024/04/19 04:51:19;;;;;;;18.67;11.80;;;17.30;48.10;;;;;;5303509;27;20528;-78
2024/04/19 04:53:49;;;;;;;17.30;10.80;;;17.30;48.10;;;;;;5305227;27;20523;-78
2024/04/19 04:56:19;;;;;;;16.10;10.10;;;17.30;48.00;;;;;;5309579;27;20560;-78
2024/04/19 04:58:49;;;;;;;15.83;9.17;;;17.30;48.00;;;;;;5313036;26;20496;-78
2024/04/19 05:01:19;;;;;;;12.30;8.50;;;17.30;48.10;;;;;;5313683;27;20480;-78
2024/04/19 05:03:52;;;;;;;13.83;8.43;;;17.30;48.00;;;;;;5303830;27;20480;-77
2024/04/19 05:06:22;;;;;;;12.93;8.20;;;17.30;48.20;;;;;;5306024;26;20527;-78
2024/04/19 05:08:52;;;;;;;10.10;7.40;;;17.40;48.10;;;;;;5313480;26;20519;-78
2024/04/19 05:11:22;;;;;;;11.03;7.53;;;17.30;48.00;;;;;;5313767;27;20476;-78
2024/04/19 05:13:52;;;;;;;9.90;6.70;;;17.30;48.00;;;;;;5303805;27;20564;-78
2024/04/19 05:16:22;;;;;;;9.70;6.73;;;17.30;48.00;;;;;;5307021;27;20477;-78
2024/04/19 05:18:55;;;;;;;11.30;7.43;;;17.30;48.00;;;;;;5298785;26;20601;-77
2024/04/19 05:21:25;;;;;;;9.13;6.90;;;17.30;48.00;;;;;;5312843;27;20534;-77
2024/04/19 05:23:55;;;;;;;9.13;5.90;;;17.30;48.00;;;;;;5313627;27;20453;-77
2024/04/19 05:26:25;;;;;;;8.10;5.80;;;17.40;48.10;;;;;;5311209;27;20477;-77
2024/04/19 05:28:55;;;;;;;6.33;5.27;;;17.40;48.00;;;;;;5311509;27;20480;-79
2024/04/19 05:31:25;;;;;;;5.93;5.27;;;17.40;48.00;;;;;;5299352;27;20508;-77
2024/04/19 05:33:58;;;;;;;7.20;5.83;;;17.40;48.00;;;;;;5308535;27;20525;-77
2024/04/19 05:36:28;;;;;;;8.60;5.90;;;17.40;48.00;;;;;;5313344;27;20504;-78
2024/04/19 05:38:58;;;;;;;6.90;5.23;;;17.40;48.00;;;;;;5294091;27;20470;-76
2024/04/19 05:41:28;;;;;;;6.30;4.83;;;17.50;48.00;;;;;;5311023;27;20473;-78
2024/04/19 05:43:58;;;;;;;5.23;4.27;;;17.50;48.50;;;;;;5300501;27;20584;-77
2024/04/19 05:46:28;;;;;;;6.13;4.83;;;17.50;47.90;;;;;;5313115;27;20485;-77
2024/04/19 05:49:01;;;;;;;6.83;5.03;;;17.50;47.80;;;;;;5300127;26;20519;-77
2024/04/19 05:51:31;;;;;;;6.80;5.20;;;17.50;47.80;;;;;;5312693;27;20465;-78
2024/04/19 05:54:01;;;;;;;4.97;4.37;;;17.50;47.80;;;;;;5296490;27;20461;-77
2024/04/19 05:56:31;;;;;;;5.90;4.50;;;17.60;47.80;;;;;;5307087;27;20461;-78
2024/04/19 05:59:01;;;;;;;5.83;4.50;;;17.50;47.70;;;;;;5313428;27;20476;-78
2024/04/19 06:01:30;;;;;;;6.53;5.03;;;17.60;47.90;;;;;;5314573;27;20475;-78
2024/04/19 06:04:04;;;;;;;6.50;5.23;;;17.60;47.80;;;;;;5313837;27;20485;-78
2024/04/19 06:06:34;;;;;;;5.37;4.77;;;17.60;47.80;;;;;;5313786;27;20537;-79
2024/04/19 06:09:04;;;;;;;5.57;4.80;;;17.60;47.80;;;;;;5298896;27;20485;-78
2024/04/19 06:11:34;;;;;;;6.20;4.57;;;17.70;47.80;;;;;;5310915;27;20473;-79
2024/04/19 06:14:04;;;;;;;5.53;4.20;;;17.70;47.80;;;;;;5313843;27;20461;-78
2024/04/19 06:16:34;;;;;;;5.00;4.33;;;17.70;47.80;;;;;;5307795;27;20572;-76
2024/04/19 06:19:07;;;;;;;4.30;3.90;;;17.80;47.80;;;;;;5312597;26;20541;-77
2024/04/19 06:21:37;;;;;;;5.17;3.90;;;17.90;47.70;;;;;;5301828;26;20473;-78
2024/04/19 06:24:08;;;;;;;4.97;4.10;;;17.90;47.60;;;;;;5312498;27;20550;-78
2024/04/19 06:26:38;;;;;;;3.77;3.40;;;17.90;47.60;;;;;;5312554;27;20481;-78
2024/04/19 06:29:08;;;;;;;4.90;3.80;;;17.90;47.80;;;;;;5306484;26;20564;-77
2024/04/19 06:31:38;;;;;;;3.90;3.53;;;17.90;47.90;;;;;;5306748;27;20469;-78
2024/04/19 06:34:10;;;;;;;3.67;3.33;;;18.00;48.00;;;;;;5304994;27;20476;-79
2024/04/19 06:36:41;;;;;;;3.63;3.33;;;18.10;48.00;;;;;;5308833;27;20564;-77
2024/04/19 06:39:20;;;;;;;3.47;3.17;;;18.10;48.10;;;;;;5312239;26;20531;-76
2024/04/19 06:41:50;;;;;;;4.43;3.50;;;18.10;47.80;;;;;;5312556;27;20528;-76
2024/04/19 06:44:18;;;;;;;3.30;3.00;;;18.20;48.00;;;;;;5312269;27;20465;-78
2024/04/19 06:46:48;;;;;;;3.10;2.90;;;18.30;48.00;;;;;;5298312;27;20465;-78
2024/04/19 06:49:23;;;;;;;3.40;2.90;;;18.30;48.00;;;;;;5303117;26;20574;-77
2024/04/19 06:51:53;;;;;;;4.00;3.10;;;18.40;48.00;;;;;;5312267;27;20476;-78
2024/04/19 06:54:23;;;;;;;3.07;2.70;;;18.50;48.10;;;;;;5312297;27;20501;-77
2024/04/19 06:56:54;;;;;;;4.53;2.77;;;18.50;47.80;;;;;;5312740;27;20506;-78
2024/04/19 06:59:24;;;;;;;2.97;2.77;;;18.60;47.90;;;;;;5309529;26;20469;-77
2024/04/19 07:01:54;;;;;;;3.10;2.90;;;18.70;47.80;;;;;;5297911;26;20631;-77
2024/04/19 07:04:27;;;;;;;5.10;2.80;;;18.70;47.90;;;;;;5304487;27;20467;-77
2024/04/19 07:06:57;;;;;;;2.90;2.70;;;18.70;48.00;;;;;;5298465;27;20505;-77
2024/04/19 07:09:27;;;;;;;2.70;2.50;;;18.70;48.10;;;;;;5311346;26;20484;-77
2024/04/19 07:11:57;;;;;;;2.80;2.60;;;18.70;48.00;;;;;;5308613;26;20477;-76
2024/04/19 07:14:27;;;;;;;2.00;1.90;;;18.80;48.30;;;;;;5311456;27;20531;-76
2024/04/19 07:16:57;;;;;;;4.23;2.80;;;18.80;48.10;;;;;;5311470;27;20481;-78
2024/04/19 07:19:30;;;;;;;4.03;2.40;;;18.80;48.30;;;;;;5311098;26;20480;-76
2024/04/19 07:22:00;;;;;;;3.10;2.80;;;18.90;48.50;;;;;;5310292;27;20469;-79
2024/04/19 07:24:33;;;;;;;2.90;2.00;;;18.90;48.60;;;;;;5313419;27;20542;-78
2024/04/19 07:27:04;;;;;;;3.30;2.13;;;19.00;48.60;;;;;;5313100;27;20564;-80
2024/04/19 07:29:35;;;;;;;3.63;2.30;;;19.00;48.60;;;;;;5312748;26;20488;-81
2024/04/19 07:32:05;;;;;;;2.67;2.37;;;19.10;48.80;;;;;;5312458;27;20533;-79
2024/04/19 07:34:38;;;;;;;2.20;2.00;;;19.20;48.50;;;;;;5297533;27;20531;-79
2024/04/19 07:37:18;;;;;;;2.50;2.30;;;19.30;48.40;;;;;;5312100;27;20469;-77
2024/04/19 07:39:48;;;;;;;2.53;2.13;;;19.30;48.20;;;;;;5304618;27;20591;-79
2024/04/19 07:42:19;;;;;;;1.93;1.73;;;19.30;48.60;;;;;;5313349;27;20579;-79
2024/04/19 07:47:31;;;;;;;2.03;1.77;;;19.40;48.60;;;;;;5314754;26;20476;-79
2024/04/19 07:50:04;;;;;;;2.00;1.80;;;19.40;48.70;;;;;;5297783;27;20531;-78
2024/04/19 07:52:34;;;;;;;4.27;2.10;;;19.40;48.60;;;;;;5312542;27;20461;-79
2024/04/19 07:55:04;;;;;;;3.00;1.90;;;19.50;48.80;;;;;;5312541;27;20473;-79
2024/04/19 07:57:34;;;;;;;4.80;2.07;;;19.50;48.90;;;;;;5307093;27;20449;-79
2024/04/19 08:00:06;;;;;;;1.63;1.47;;;19.60;49.50;;;;;;5309123;26;20533;-80
2024/04/19 08:02:36;;;;;;;2.27;1.70;;;19.70;49.00;;;;;;5298658;27;20465;-79
2024/04/19 08:05:09;;;;;;;3.00;1.50;;;19.80;49.00;;;;;;5302999;27;20962;-78
2024/04/19 08:07:39;;;;;;;2.60;1.53;;;19.90;48.70;;;;;;5312333;27;20457;-78
2024/04/19 08:10:15;;;;;;;4.77;1.97;;;20.00;49.10;;;;;;5299180;27;20523;-77
2024/04/19 08:12:47;;;;;;;3.13;1.60;;;20.00;49.10;;;;;;5308682;27;20457;-78
2024/04/19 08:15:20;;;;;;;7.53;1.77;;;20.10;49.80;;;;;;5312704;27;20445;-78
2024/04/19 08:17:54;;;;;;;1.70;1.60;;;20.20;49.30;;;;;;5311607;27;20512;-77
2024/04/19 08:20:26;;;;;;;2.20;1.70;;;20.30;49.30;;;;;;5301808;27;20560;-78
2024/04/19 08:22:56;;;;;;;4.00;1.70;;;20.40;49.40;;;;;;5307320;27;20449;-77
2024/04/19 08:25:24;;;;;;;2.60;1.57;;;20.50;49.40;;;;;;5311415;27;20712;-78
2024/04/19 08:27:53;;;;;;;3.27;2.00;;;20.60;49.60;;;;;;5314572;27;20469;-78
2024/04/19 08:30:24;;;;;;;3.10;1.87;;;20.70;49.60;;;;;;5284679;27;20950;-78
2024/04/19 08:32:54;;;;;;;3.13;1.70;;;20.80;49.40;;;;;;5310456;27;20524;-76
2024/04/19 08:35:27;;;;;;;2.97;1.90;;;20.90;49.30;;;;;;5311645;27;20473;-78
2024/04/19 08:37:57;;;;;;;2.37;1.60;;;21.10;49.20;;;;;;5296405;27;20480;-77
2024/04/19 08:40:29;;;;;;;4.47;2.20;;;21.10;49.10;;;;;;5293289;27;20518;-78
2024/04/19 08:42:59;;;;;;;3.97;1.70;;;21.10;48.90;;;;;;5278234;27;20566;-77
2024/04/19 08:45:32;;;;;;;5.33;2.03;;;21.00;49.00;;;;;;5277398;27;20503;-79
2024/04/19 08:48:02;;;;;;;3.93;1.93;;;21.00;49.00;;;;;;5296602;26;20465;-78
2024/04/19 08:50:36;;;;;;;2.70;1.57;;;21.00;49.10;;;;;;5312830;27;20461;-78
2024/04/19 08:53:08;;;;;;;2.10;1.50;;;21.00;49.10;;;;;;5295669;27;20525;-79
2024/04/19 08:55:45;;;;;;;3.00;1.50;;;21.00;48.90;;;;;;5312731;27;20456;-79
2024/04/19 08:58:14;;;;;;;1.87;1.60;;;21.10;49.20;;;;;;5308558;27;20529;-80
2024/04/19 09:00:45;;;;;;;3.63;1.63;;;21.20;49.40;;;;;;5312039;27;20441;-81
2024/04/19 09:03:15;;;;;;;5.13;1.90;;;21.30;49.40;;;;;;5315818;27;20556;-78
2024/04/19 09:06:04;;;;;;;1.73;1.10;;;21.40;49.20;;;;;;5311531;27;20523;-78
2024/04/19 09:08:40;;;;;;;1.53;1.33;;;21.70;49.40;;;;;;5307916;27;20480;-79
2024/04/19 09:11:23;;;;;;;3.70;1.43;;;21.80;48.90;;;;;;5300569;27;20489;-78
2024/04/19 09:13:53;;;;;;;10.10;1.80;;;21.90;48.90;;;;;;5304917;27;20494;-78
2024/04/19 09:16:24;;;;;;;3.33;1.60;;;21.90;48.80;;;;;;5297068;27;20477;-78
2024/04/19 09:18:58;;;;;;;1.90;1.80;;;22.00;49.00;;;;;;5283866;27;20590;-79
2024/04/19 09:21:33;;;;;;;2.87;1.67;;;22.20;48.90;;;;;;5311530;27;21136;-78
2024/04/19 09:24:05;;;;;;;2.53;1.50;;;22.30;48.80;;;;;;5312053;27;21020;-79
2024/04/19 09:26:36;;;;;;;2.90;2.03;;;22.50;49.00;;;;;;5314671;27;20553;-78
2024/04/19 09:29:07;;;;;;;5.23;1.90;;;22.60;48.60;;;;;;5310622;27;20480;-77
2024/04/19 09:31:44;;;;;;;2.73;1.40;;;22.70;48.50;;;;;;5310923;27;20491;-78
2024/04/19 09:35:06;;;;;;;4.87;1.60;;;22.90;48.60;;;;;;5306782;27;20524;-79
2024/04/19 09:52:34;;;;;;;4.37;1.90;;;23.00;47.90;;;;;;5311555;27;20564;-77
2024/04/19 10:06:42;;;;;;;3.97;2.00;;;23.40;48.70;;;;;;5097040;27;20968;-78
2024/04/19 10:09:15;;;;;;;4.53;1.60;;;23.90;48.50;;;;;;5176645;27;20482;-77
2024/04/19 10:11:48;;;;;;;3.70;2.03;;;24.30;48.60;;;;;;5177347;27;20466;-80
2024/04/19 10:14:23;;;;;;;2.90;1.67;;;24.60;48.00;;;;;;5158478;27;20471;-79
2024/04/19 10:16:53;;;;;;;4.70;1.90;;;24.90;48.60;;;;;;5177098;27;20483;-79
2024/04/19 10:19:23;;;;;;;2.90;2.07;;;25.30;47.70;;;;;;5155482;27;20638;-79
2024/04/19 10:22:02;;;;;;;4.53;1.83;;;25.70;47.30;;;;;;5175199;27;20527;-79
2024/04/19 10:24:35;;;;;;;2.20;1.60;;;25.90;46.30;;;;;;5178393;27;20442;-78
2024/04/19 10:27:11;;;;;;;3.10;1.47;;;26.00;45.80;;;;;;5170322;27;20462;-80
2024/04/19 10:29:42;;;;;;;2.80;1.60;;;26.00;45.40;;;;;;5177832;27;20518;-79
2024/04/19 10:32:12;;;;;;;2.80;1.60;;;26.00;45.30;;;;;;5177156;27;20487;-79
2024/04/19 10:34:43;;;;;;;4.80;1.63;;;26.30;45.40;;;;;;5216281;27;21049;-77
2024/04/19 10:37:15;;;;;;;3.70;1.90;;;26.30;44.80;;;;;;5315967;27;20477;-78
2024/04/19 10:39:46;;;;;;;4.80;1.77;;;26.40;44.40;;;;;;5315500;27;20453;-79
2024/04/19 10:42:16;;;;;;;3.77;1.73;;;26.40;44.10;;;;;;5281419;27;20513;-80
2024/04/19 10:44:48;;;;;;;3.70;1.87;;;26.30;43.90;;;;;;5308661;27;20457;-81
2024/04/19 10:47:19;;;;;;;3.80;1.97;;;26.10;43.70;;;;;;5310457;27;20472;-79
2024/04/19 10:49:57;;;;;;;4.23;1.80;;;25.90;43.80;;;;;;5313311;26;20505;-80
2024/04/19 10:52:30;;;;;;;3.70;1.80;;;25.70;43.70;;;;;;5291351;27;20993;-80
2024/04/19 10:55:00;;;;;;;3.53;1.97;;;25.50;43.70;;;;;;5296010;27;20470;-80
2024/04/19 10:57:31;;;;;;;2.57;1.57;;;25.30;44.00;;;;;;5295408;27;20481;-82
2024/04/19 11:00:04;;;;;;;4.70;1.80;;;25.10;44.20;;;;;;5317331;26;20472;-80
2024/04/19 11:32:35;;;;;;;5.40;2.20;;;24.80;45.20;;;;;;5246885;27;20628;-77
2024/04/19 11:35:46;;;;;;;3.63;1.60;;;24.60;45.90;;;;;;5226495;27;20483;-78
2024/04/19 11:42:03;;;;;;;6.53;2.03;;;25.80;47.20;;;;;;5112559;27;21013;-79
2024/04/19 11:44:59;;;;;;;2.37;1.90;;;27.80;44.60;;;;;;5128999;27;20465;-79
2024/04/19 13:20:08;;;;;;;;;;;;;;;;;;;;;
2024/04/19 13:56:16;;;;;;;1.87;1.70;;;27.90;42.90;;;;;;5395172;26;20907;-79
2024/04/19 13:58:46;;;;;;;4.57;2.17;;;28.20;41.40;;;;;;5388666;26;20453;-79
2024/04/19 14:01:16;;;;;;;7.87;1.77;;;28.20;40.50;;;;;;5413336;26;20444;-78
2024/04/19 14:03:53;;;;;;;3.00;1.77;;;28.20;40.40;;;;;;5406826;26;20501;-79
2024/04/19 14:06:26;;;;;;;4.07;1.87;;;28.20;40.50;;;;;;5398786;26;20441;-77
2024/04/19 14:09:14;;;;;;;4.00;1.90;;;27.70;40.60;;;;;;5413736;26;20519;-78
2024/04/19 14:11:47;;;;;;;4.10;1.87;;;27.20;41.20;;;;;;5400701;26;20449;-78
2024/04/19 14:14:19;;;;;;;4.00;2.10;;;26.80;41.80;;;;;;5404224;26;21288;-78
2024/04/19 14:16:49;;;;;;;2.23;1.60;;;26.40;42.50;;;;;;5412740;26;20469;-78
2024/04/19 14:19:22;;;;;;;4.00;1.87;;;26.80;44.60;;;;;;5409068;26;20468;-77
2024/04/19 14:21:52;;;;;;;2.93;1.80;;;27.60;42.60;;;;;;5398079;26;21208;-77
2024/04/19 14:24:20;;;;;;;3.80;1.70;;;28.50;41.30;;;;;;5413655;26;20429;-79
2024/04/19 14:26:52;;;;;;;1.80;1.60;;;28.90;39.20;;;;;;5415638;26;20563;-81
2024/04/19 14:29:25;;;;;;;2.90;1.80;;;28.60;39.50;;;;;;5409659;26;20487;-78
2024/04/19 14:32:00;;;;;;;4.10;1.77;;;28.40;39.80;;;;;;5409928;26;20444;-80
2024/04/19 14:34:35;;;;;;;1.77;1.40;;;28.60;39.30;;;;;;5415826;26;20441;-78
2024/04/19 14:37:06;;;;;;;2.97;1.80;;;28.00;39.60;;;;;;5388228;26;20533;-77
2024/04/19 14:39:36;;;;;;;3.50;1.77;;;27.60;40.20;;;;;;5388273;26;20446;-78
2024/04/19 14:42:10;;;;;;;2.30;2.03;;;27.10;40.80;;;;;;5389618;26;20493;-77
2024/04/19 14:44:40;;;;;;;2.87;1.83;;;26.60;41.40;;;;;;5388865;26;20491;-78
2024/04/19 14:47:10;;;;;;;3.17;1.73;;;26.30;42.10;;;;;;5415981;26;20477;-79
2024/04/19 14:49:40;;;;;;;3.47;1.70;;;26.40;43.30;;;;;;5385480;26;20607;-79
2024/04/19 14:52:10;;;;;;;3.27;1.53;;;27.20;42.50;;;;;;5383883;26;20445;-80
2024/04/19 14:54:45;;;;;;;9.17;1.93;;;27.80;41.60;;;;;;5407170;26;21045;-80
2024/04/19 14:57:22;;;;;;;4.27;1.80;;;28.30;40.20;;;;;;5398218;26;20526;-77
2024/04/19 14:59:52;;;;;;;1.53;1.30;;;27.80;40.00;;;;;;5396414;26;20470;-79
2024/04/19 15:02:26;;;;;;;2.77;1.67;;;27.30;40.30;;;;;;5378507;26;20565;-78
2024/04/19 15:05:02;;;;;;;2.53;1.70;;;26.80;40.90;;;;;;5396785;26;20874;-78
2024/04/19 15:07:53;;;;;;;2.97;1.87;;;26.40;41.40;;;;;;5379059;26;20519;-78
2024/04/19 15:10:39;;;;;;;2.47;1.90;;;26.00;42.10;;;;;;5389767;26;20997;-78
2024/04/19 15:13:29;;;;;;;4.27;1.93;;;25.70;42.70;;;;;;5398707;26;20462;-77
2024/04/19 15:16:04;;;;;;;3.33;1.73;;;25.30;43.20;;;;;;5402163;26;20984;-79
2024/04/19 15:18:35;;;;;;;2.40;1.37;;;25.10;43.50;;;;;;5368057;26;20600;-78
2024/04/19 15:21:12;;;;;;;3.60;2.00;;;24.90;44.50;;;;;;5380884;26;20450;-78
2024/04/19 15:23:48;;;;;;;3.40;1.83;;;24.70;44.10;;;;;;5380259;26;20544;-78
2024/04/19 15:26:18;;;;;;;1.93;1.73;;;24.80;44.80;;;;;;5398130;26;20468;-78
2024/04/19 15:28:51;;;;;;;4.50;2.20;;;24.90;44.70;;;;;;5376954;26;20530;-80
2024/04/19 15:31:22;;;;;;;2.90;1.80;;;25.00;44.50;;;;;;5389201;26;20473;-82
2024/04/19 15:33:53;;;;;;;1.67;1.57;;;25.00;44.50;;;;;;5384845;26;20478;-79
2024/04/19 15:36:23;;;;;;;3.00;1.53;;;25.00;44.40;;;;;;5389159;26;20464;-79
2024/04/19 15:38:55;;;;;;;7.80;2.00;;;24.90;44.30;;;;;;5361397;26;20521;-79
2024/04/19 15:41:25;;;;;;;2.90;1.80;;;24.80;44.40;;;;;;5382892;26;20525;-79
2024/04/19 15:44:16;;;;;;;2.50;1.50;;;24.60;44.60;;;;;;5412130;26;20453;-76
2024/04/19 15:46:46;;;;;;;6.40;1.70;;;24.40;44.90;;;;;;5359017;26;20537;-76
2024/04/19 15:49:16;;;;;;;7.67;2.13;;;24.30;45.20;;;;;;5380707;26;20480;-76
2024/04/19 15:51:46;;;;;;;3.23;1.73;;;24.20;45.40;;;;;;5388799;26;20523;-78
2024/04/19 15:54:18;;;;;;;2.50;1.60;;;24.00;45.50;;;;;;5407621;26;20480;-77
2024/04/19 15:56:48;;;;;;;3.30;1.67;;;23.90;45.70;;;;;;5402984;26;20464;-79
2024/04/19 15:59:23;;;;;;;3.23;1.63;;;23.90;46.00;;;;;;5395306;26;20470;-80
2024/04/19 16:01:54;;;;;;;2.53;1.57;;;23.80;46.10;;;;;;5407116;26;20444;-78
2024/04/19 16:04:24;;;;;;;4.90;2.13;;;23.80;46.30;;;;;;5409358;26;20472;-78
2024/04/19 16:06:55;;;;;;;4.60;1.87;;;23.80;46.50;;;;;;5400751;26;20523;-80
2024/04/19 16:09:25;;;;;;;3.73;1.23;;;23.80;46.30;;;;;;5413978;26;20476;-79
2024/04/19 16:11:55;;;;;;;2.30;1.30;;;23.70;46.20;;;;;;5391734;26;20520;-78
2024/04/19 16:14:27;;;;;;;2.20;1.57;;;23.60;46.20;;;;;;5379524;26;20453;-79
2024/04/19 16:16:58;;;;;;;2.20;1.30;;;23.50;46.10;;;;;;5375410;26;20525;-78
2024/04/19 16:19:28;;;;;;;8.50;1.83;;;23.40;45.90;;;;;;5385824;26;20478;-79
2024/04/19 16:21:58;;;;;;;4.70;1.87;;;23.40;45.90;;;;;;5363459;26;20568;-82
2024/04/19 16:24:28;;;;;;;5.40;1.60;;;23.30;46.00;;;;;;5384730;26;20479;-79